Warning: A non-numeric value encountered in /home/httpd/v/a/l/valdefench57sgz/valdefench57sgz.franceserv.com/weather28/wsFunctions.php on line 312
WARNING - Change wsUserSettings.php: $SITE["topfolder"] from : /home/httpd/v/a/l/valdefench57sgz/valdefench57sgz.franceserv.com/weather28/ to: weather28/
  Séremange Erzange, Lorraine, Moselle 57, France.  (25 km au Nord de Metz et 10 km au Sud-Ouest de Thionville)    Latitude : 49° 18' 59'' Nord    Longitude : 6° 5' 33'' Est    Altitude : 210 Mètres  



My webcam FOSCAM plus d'informations My webcam FOSCAM


My webcam 2 facing SUD plus d'informations My webcam 2 facing SUD


Visitez nos sites météorologiques autres:

Cartes by Infoclimat

Releves de station MF

Site partenaire

MeteoTemplate

BLOG/MeteoTemplate.com

MK meteokit

HomeWeatherStation WU

Home MeteoLive Station 2

Radar Meteox

Radar Meteo60

carte MétéoAlerte

Image satellite par ARPAL_meteoFermo

Data Infoclimat.fr

Radars Pluies NE

Vigilance meteo FR

Keraunos

Carte Isobares

Tags GFS

Bracknell Animation

Air Lorraine



Pas de vigilance météorologique particulière.    Il n'y a aucun avertissement

Rapports METAR proximité

   
LFJL - Metz
Mise à jour: 04-02-2019 13:00
PAS actuel
Ciel peu couvert  
Ciel peu couvert  
   Vent: Sud Est 14.8 km/h
Vent: Sud Est 14.8 km/h
Température: 4°C
éolien: 1°C
Point de rosée: -1°C
Humidité: 70%
Baromètre: 1027 hPa
visibilité: More then 10 km
Détails des nuages: Ciel peu couvert ft
LFJL 041200Z AUTO 14008KT CAVOK 04/M01 Q1027 NOSIG
ELLX - Luxemburg
Mise à jour: 04-02-2019 14:50
PAS actuel
Ciel peu couvert  
Ciel peu couvert  
   Vent: Sud 13 km/h
Vent: Sud 13 km/h
Température: 2°C
éolien: -2°C
Point de rosée: -3°C
Humidité: 70%
Baromètre: 1026 hPa
visibilité: More then 10 km
Détails des nuages: Ciel peu couvert ft
ELLX 041350Z 18007KT 150V210 CAVOK 02/M03 Q1026 NOSIG
EDDR - Sarrbrucken
Mise à jour: 04-02-2019 11:50
PAS actuel
Ciel peu couvert  
Ciel peu couvert  
   Vent: Est 5.6 km/h
Vent: Est 5.6 km/h
Température: 2°C
éolien: 1°C
Point de rosée: -2°C
Humidité: 75%
Baromètre: 1028 hPa
visibilité: More then 10 km
Détails des nuages: Ciel peu couvert ft
EDDR 041050Z 09003KT 050V160 CAVOK 02/M02 Q1028 NOSIG
LFST - Strasbourg
Mise à jour: 04-02-2019 11:30
PAS actuel
Ciel peu couvert  
Ciel peu couvert  
   Vent: varie 3.7 km/h
Vent: varie 3.7 km/h
Température: 3°C
Point de rosée: 0°C
Humidité: 81%
Baromètre: 1030 hPa
visibilité: More then 10 km
Détails des nuages: Ciel peu couvert ft
LFST 041030Z AUTO VRB02KT CAVOK 03/M00 Q1030 NOSIG
  

Script développé par  Saratoga-weather.org Adapté pour le modèle par  Weerstation Leuven

Vous trouverez notre info météo Également à:

UK Metoffice

WeatherCloud

Weather Underground

French Weather Network

AWEKAS

WeatherlinkIP

Citizen Weather Observer Program (CWOP)

HAMweather, WeatherForYou, PWS Weather

Anything Weather

Infoclimat

lineaMeteo

meteonetwork

meteociel

stationmeteo

meteobelgique

wedaal24

wsmap

arps

weatherbug

wetterstationen

windgurucz

         

Équipement que nous utilisons:

Station de Météo
Davis VP2 Plus (Wireless)

Programme Météo
Meteohub

Ordinateur Météo
MeteoLink LAN

Provider
FranceServ Hébergement

Davis VP2 Plus (Wireless)

Meteohub

MeteoLink LAN

FranceServ Hébergement